sensor_id;sensor_type;location;lat;lon;timestamp;pressure;altitude;pressure_sealevel;temperature;humidity
84483;BME280;74703;51.284;22.590;2024-02-15T00:03:33;100162.34;;;0.34;87.88
84483;BME280;74703;51.284;22.590;2024-02-15T00:08:35;100195.72;;;0.55;87.93
84483;BME280;74703;51.284;22.590;2024-02-15T00:13:36;100175.19;;;0.51;88.08
84483;BME280;74703;51.284;22.590;2024-02-15T00:18:36;100190.66;;;0.67;87.15
84483;BME280;74703;51.284;22.590;2024-02-15T00:23:37;100195.72;;;0.55;87.17
84483;BME280;74703;51.284;22.590;2024-02-15T00:28:38;100202.53;;;0.53;87.51
84483;BME280;74703;51.284;22.590;2024-02-15T00:33:38;100204.28;;;0.62;88.66
84483;BME280;74703;51.284;22.590;2024-02-15T00:38:39;100205.25;;;0.85;87.45
84483;BME280;74703;51.284;22.590;2024-02-15T00:43:39;100195.00;;;0.91;85.43
84483;BME280;74703;51.284;22.590;2024-02-15T00:48:40;100188.19;;;1.00;84.34
84483;BME280;74703;51.284;22.590;2024-02-15T00:53:41;100189.09;;;1.09;83.29
84483;BME280;74703;51.284;22.590;2024-02-15T00:58:41;100190.81;;;1.17;83.71
84483;BME280;74703;51.284;22.590;2024-02-15T01:03:42;100175.44;;;1.17;83.50
84483;BME280;74703;51.284;22.590;2024-02-15T01:08:42;100184.81;;;1.24;83.93
84483;BME280;74703;51.284;22.590;2024-02-15T01:13:43;100184.81;;;1.24;84.51
84483;BME280;74703;51.284;22.590;2024-02-15T01:18:44;100172.03;;;1.22;84.39
84483;BME280;74703;51.284;22.590;2024-02-15T01:23:45;100159.16;;;1.11;85.54
84483;BME280;74703;51.284;22.590;2024-02-15T01:28:46;100172.88;;;1.18;86.31
84483;BME280;74703;51.284;22.590;2024-02-15T01:33:48;100195.97;;;1.32;85.66
84483;BME280;74703;51.284;22.590;2024-02-15T01:38:48;100152.31;;;1.06;84.58
84483;BME280;74703;51.284;22.590;2024-02-15T01:43:49;100190.84;;;1.30;84.16
84483;BME280;74703;51.284;22.590;2024-02-15T01:48:51;100157.47;;;1.12;85.06
84483;BME280;74703;51.284;22.590;2024-02-15T01:53:52;100160.06;;;1.21;85.31
84483;BME280;74703;51.284;22.590;2024-02-15T01:58:53;100159.22;;;1.25;85.45
84483;BME280;74703;51.284;22.590;2024-02-15T02:03:54;100174.59;;;1.37;85.72
84483;BME280;74703;51.284;22.590;2024-02-15T02:08:56;100173.75;;;1.45;84.72
84483;BME280;74703;51.284;22.590;2024-02-15T02:13:57;100159.22;;;1.44;82.40
84483;BME280;74703;51.284;22.590;2024-02-15T02:18:58;100142.13;;;1.44;81.01
84483;BME280;74703;51.284;22.590;2024-02-15T02:24:00;100166.91;;;1.65;79.83
84483;BME280;74703;51.284;22.590;2024-02-15T02:29:02;100150.66;;;1.63;78.97
84483;BME280;74703;51.284;22.590;2024-02-15T02:34:07;100150.69;;;1.77;77.48
84483;BME280;74703;51.284;22.590;2024-02-15T02:39:08;100139.56;;;1.76;77.60
84483;BME280;74703;51.284;22.590;2024-02-15T02:44:08;100174.59;;;1.93;76.48
84483;BME280;74703;51.284;22.590;2024-02-15T02:49:09;100171.19;;;1.92;76.45
84483;BME280;74703;51.284;22.590;2024-02-15T02:54:10;100165.22;;;1.89;78.35
84483;BME280;74703;51.284;22.590;2024-02-15T02:59:11;100153.22;;;1.83;78.43
84483;BME280;74703;51.284;22.590;2024-02-15T03:04:15;100160.09;;;1.82;79.13
84483;BME280;74703;51.284;22.590;2024-02-15T03:09:17;100155.81;;;1.71;78.76
84483;BME280;74703;51.284;22.590;2024-02-15T03:14:18;100158.38;;;1.77;78.52
84483;BME280;74703;51.284;22.590;2024-02-15T03:19:18;100160.94;;;1.77;77.67
84483;BME280;74703;51.284;22.590;2024-02-15T03:24:18;100175.44;;;1.90;76.79
84483;BME280;74703;51.284;22.590;2024-02-15T03:29:19;100166.91;;;1.87;76.35
84483;BME280;74703;51.284;22.590;2024-02-15T03:34:20;100173.78;;;1.91;76.68
84483;BME280;74703;51.284;22.590;2024-02-15T03:39:21;100178.03;;;1.92;77.21
84483;BME280;74703;51.284;22.590;2024-02-15T03:44:23;100181.44;;;2.03;75.27
84483;BME280;74703;51.284;22.590;2024-02-15T03:49:26;100154.94;;;1.89;75.93
84483;BME280;74703;51.284;22.590;2024-02-15T03:54:26;100179.72;;;2.11;74.09
84483;BME280;74703;51.284;22.590;2024-02-15T03:59:30;100169.44;;;2.05;74.74
84483;BME280;74703;51.284;22.590;2024-02-15T04:04:32;100186.56;;;2.15;74.65
84483;BME280;74703;51.284;22.590;2024-02-15T04:09:33;100167.69;;;2.25;74.26
84483;BME280;74703;51.284;22.590;2024-02-15T04:14:35;100161.72;;;2.14;74.01
84483;BME280;74703;51.284;22.590;2024-02-15T04:19:36;100171.13;;;2.23;74.71
84483;BME280;74703;51.284;22.590;2024-02-15T04:24:37;100148.06;;;2.11;73.37
84483;BME280;74703;51.284;22.590;2024-02-15T04:29:41;100156.63;;;2.13;74.25
84483;BME280;74703;51.284;22.590;2024-02-15T04:34:44;100183.13;;;2.19;73.96
84483;BME280;74703;51.284;22.590;2024-02-15T04:39:47;100178.84;;;2.24;74.55
84483;BME280;74703;51.284;22.590;2024-02-15T04:44:48;100132.69;;;1.95;75.24
84483;BME280;74703;51.284;22.590;2024-02-15T04:49:48;100154.91;;;2.10;74.47
84483;BME280;74703;51.284;22.590;2024-02-15T04:54:49;100154.03;;;2.19;74.13
84483;BME280;74703;51.284;22.590;2024-02-15T04:59:49;100172.00;;;2.25;75.08
84483;BME280;74703;51.284;22.590;2024-02-15T05:04:50;100146.31;;;2.17;74.32
84483;BME280;74703;51.284;22.590;2024-02-15T05:09:56;100146.31;;;2.20;73.73
84483;BME280;74703;51.284;22.590;2024-02-15T05:14:57;100144.59;;;2.27;73.22
84483;BME280;74703;51.284;22.590;2024-02-15T05:19:57;100162.53;;;2.35;73.98
84483;BME280;74703;51.284;22.590;2024-02-15T05:25:00;100143.72;;;2.26;73.02
84483;BME280;74703;51.284;22.590;2024-02-15T05:30:03;100142.84;;;2.37;72.34
84483;BME280;74703;51.284;22.590;2024-02-15T05:35:10;100150.56;;;2.37;73.05
84483;BME280;74703;51.284;22.590;2024-02-15T05:40:15;100166.75;;;2.51;72.62
84483;BME280;74703;51.284;22.590;2024-02-15T05:50:25;100171.09;;;2.37;73.04
84483;BME280;74703;51.284;22.590;2024-02-15T05:55:27;100173.66;;;2.43;72.75
84483;BME280;74703;51.284;22.590;2024-02-15T06:00:29;100188.19;;;2.48;72.94
84483;BME280;74703;51.284;22.590;2024-02-15T06:05:30;100162.53;;;2.35;73.71
84483;BME280;74703;51.284;22.590;2024-02-15T06:10:31;100199.34;;;2.41;74.19
84483;BME280;74703;51.284;22.590;2024-02-15T06:15:32;100163.41;;;2.26;74.32
84483;BME280;74703;51.284;22.590;2024-02-15T06:20:34;100207.88;;;2.46;74.57
84483;BME280;74703;51.284;22.590;2024-02-15T06:25:35;100208.75;;;2.48;74.46
84483;BME280;74703;51.284;22.590;2024-02-15T06:30:36;100197.63;;;2.39;75.59
84483;BME280;74703;51.284;22.590;2024-02-15T06:35:55;100199.31;;;2.50;75.10
84483;BME280;74703;51.284;22.590;2024-02-15T06:41:14;100217.22;;;2.69;73.96
84483;BME280;74703;51.284;22.590;2024-02-15T06:46:14;100199.25;;;2.67;73.98
84483;BME280;74703;51.284;22.590;2024-02-15T06:51:15;100218.06;;;2.80;72.40
84483;BME280;74703;51.284;22.590;2024-02-15T06:56:15;100223.97;;;3.04;70.73
84483;BME280;74703;51.284;22.590;2024-02-15T07:01:16;100209.38;;;3.07;70.38
84483;BME280;74703;51.284;22.590;2024-02-15T07:06:17;100216.19;;;3.16;70.32
84483;BME280;74703;51.284;22.590;2024-02-15T07:11:19;100223.75;;;3.40;69.00
84483;BME280;74703;51.284;22.590;2024-02-15T07:16:20;100220.25;;;3.52;67.44
84483;BME280;74703;51.284;22.590;2024-02-15T07:21:20;100233.88;;;3.66;69.01
84483;BME280;74703;51.284;22.590;2024-02-15T07:26:27;100208.97;;;3.68;67.64
84483;BME280;74703;51.284;22.590;2024-02-15T07:31:28;100209.78;;;3.72;67.64
84483;BME280;74703;51.284;22.590;2024-02-15T07:36:29;100225.94;;;3.94;67.43
84483;BME280;74703;51.284;22.590;2024-02-15T07:41:30;100219.09;;;3.90;67.11
84483;BME280;74703;51.284;22.590;2024-02-15T07:46:33;100235.28;;;4.06;67.49
84483;BME280;74703;51.284;22.590;2024-02-15T07:51:34;100223.22;;;4.08;66.48
84483;BME280;74703;51.284;22.590;2024-02-15T07:56:36;100228.19;;;4.31;67.01
84483;BME280;74703;51.284;22.590;2024-02-15T08:01:40;100210.84;;;4.48;66.14
84483;BME280;74703;51.284;22.590;2024-02-15T08:06:41;100211.81;;;4.36;65.21
84483;BME280;74703;51.284;22.590;2024-02-15T08:11:42;100225.44;;;4.46;64.48
84483;BME280;74703;51.284;22.590;2024-02-15T08:16:42;100205.72;;;4.44;65.09
84483;BME280;74703;51.284;22.590;2024-02-15T08:21:43;100229.41;;;4.75;64.59
84483;BME280;74703;51.284;22.590;2024-02-15T08:26:46;100218.84;;;4.99;64.02
84483;BME280;74703;51.284;22.590;2024-02-15T08:31:47;100190.38;;;5.05;64.27
84483;BME280;74703;51.284;22.590;2024-02-15T08:36:49;100198.72;;;5.23;64.33
84483;BME280;74703;51.284;22.590;2024-02-15T08:41:50;100198.88;;;5.11;62.74
84483;BME280;74703;51.284;22.590;2024-02-15T08:46:52;100209.88;;;5.25;62.45
84483;BME280;74703;51.284;22.590;2024-02-15T08:51:52;100219.44;;;5.18;63.24
84483;BME280;74703;51.284;22.590;2024-02-15T08:56:53;100220.38;;;5.11;63.05
84483;BME280;74703;51.284;22.590;2024-02-15T09:01:54;100212.91;;;4.91;63.57
84483;BME280;74703;51.284;22.590;2024-02-15T09:06:56;100231.66;;;5.04;64.03
84483;BME280;74703;51.284;22.590;2024-02-15T09:11:57;100211.91;;;5.01;63.79
84483;BME280;74703;51.284;22.590;2024-02-15T09:16:58;100212.63;;;5.13;63.51
84483;BME280;74703;51.284;22.590;2024-02-15T09:21:58;100244.81;;;5.47;62.29
84483;BME280;74703;51.284;22.590;2024-02-15T09:27:01;100224.31;;;5.38;62.68
84483;BME280;74703;51.284;22.590;2024-02-15T09:32:01;100208.78;;;5.43;63.42
84483;BME280;74703;51.284;22.590;2024-02-15T09:37:02;100227.47;;;5.59;62.00
84483;BME280;74703;51.284;22.590;2024-02-15T09:42:03;100211.13;;;5.57;61.92
84483;BME280;74703;51.284;22.590;2024-02-15T09:47:05;100232.22;;;5.85;62.42
84483;BME280;74703;51.284;22.590;2024-02-15T09:52:08;100228.06;;;5.74;61.83
84483;BME280;74703;51.284;22.590;2024-02-15T09:57:16;100213.88;;;5.46;61.96
84483;BME280;74703;51.284;22.590;2024-02-15T10:02:18;100239.53;;;5.58;62.58
84483;BME280;74703;51.284;22.590;2024-02-15T10:07:19;100210.13;;;5.65;62.22
84483;BME280;74703;51.284;22.590;2024-02-15T10:12:20;100216.59;;;5.92;61.34
84483;BME280;74703;51.284;22.590;2024-02-15T10:17:23;100219.00;;;6.06;62.29
84483;BME280;74703;51.284;22.590;2024-02-15T10:22:24;100208.03;;;5.93;61.30
84483;BME280;74703;51.284;22.590;2024-02-15T10:27:24;100222.44;;;6.07;59.66
84483;BME280;74703;51.284;22.590;2024-02-15T10:32:34;100211.25;;;6.05;60.19
84483;BME280;74703;51.284;22.590;2024-02-15T10:37:35;100196.81;;;5.94;60.70
84483;BME280;74703;51.284;22.590;2024-02-15T10:42:36;100216.09;;;6.23;59.88
84483;BME280;74703;51.284;22.590;2024-02-15T10:47:37;100198.00;;;6.25;58.71
84483;BME280;74703;51.284;22.590;2024-02-15T10:52:55;100203.06;;;6.29;59.74
84483;BME280;74703;51.284;22.590;2024-02-15T10:58:01;100194.78;;;6.12;60.29
84483;BME280;74703;51.284;22.590;2024-02-15T11:03:05;100200.91;;;6.05;61.02
84483;BME280;74703;51.284;22.590;2024-02-15T11:08:09;100199.91;;;6.15;59.92
84483;BME280;74703;51.284;22.590;2024-02-15T11:13:10;100215.47;;;6.12;60.24
84483;BME280;74703;51.284;22.590;2024-02-15T11:18:11;100203.91;;;6.31;60.67
84483;BME280;74703;51.284;22.590;2024-02-15T11:23:23;100198.56;;;6.40;59.79
84483;BME280;74703;51.284;22.590;2024-02-15T11:33:31;100212.91;;;6.57;59.42
84483;BME280;74703;51.284;22.590;2024-02-15T11:38:32;100199.41;;;6.41;59.33
84483;BME280;74703;51.284;22.590;2024-02-15T11:48:46;100192.94;;;6.17;60.34
84483;BME280;74703;51.284;22.590;2024-02-15T11:54:07;100212.50;;;6.32;59.72
84483;BME280;74703;51.284;22.590;2024-02-15T11:59:07;100190.16;;;6.29;60.68
84483;BME280;74703;51.284;22.590;2024-02-15T12:04:08;100190.97;;;6.31;60.75
84483;BME280;74703;51.284;22.590;2024-02-15T12:09:27;100190.63;;;6.51;60.59
84483;BME280;74703;51.284;22.590;2024-02-15T12:14:46;100182.56;;;6.65;59.72
84483;BME280;74703;51.284;22.590;2024-02-15T12:20:05;100191.22;;;6.64;60.55
84483;BME280;74703;51.284;22.590;2024-02-15T12:25:15;100194.06;;;6.52;60.42
84483;BME280;74703;51.284;22.590;2024-02-15T12:30:17;100200.00;;;6.57;59.51
84483;BME280;74703;51.284;22.590;2024-02-15T12:35:22;100192.47;;;6.45;59.73
84483;BME280;74703;51.284;22.590;2024-02-15T12:40:30;100177.88;;;6.42;59.86
84483;BME280;74703;51.284;22.590;2024-02-15T12:45:32;100179.19;;;6.61;58.93
84483;BME280;74703;51.284;22.590;2024-02-15T12:50:33;100165.50;;;6.58;60.18
84483;BME280;74703;51.284;22.590;2024-02-15T12:55:35;100170.34;;;6.75;59.89
84483;BME280;74703;51.284;22.590;2024-02-15T13:00:37;100169.91;;;6.95;59.82
84483;BME280;74703;51.284;22.590;2024-02-15T13:05:39;100147.63;;;6.87;61.25
84483;BME280;74703;51.284;22.590;2024-02-15T13:10:40;100136.00;;;6.67;61.39
84483;BME280;74703;51.284;22.590;2024-02-15T13:15:40;100137.56;;;6.74;60.09
84483;BME280;74703;51.284;22.590;2024-02-15T13:20:41;100145.31;;;6.75;60.38
84483;BME280;74703;51.284;22.590;2024-02-15T13:25:42;100126.59;;;6.62;60.59
84483;BME280;74703;51.284;22.590;2024-02-15T13:30:43;100162.53;;;6.76;60.80
84483;BME280;74703;51.284;22.590;2024-02-15T13:35:45;100136.84;;;6.67;60.59
84483;BME280;74703;51.284;22.590;2024-02-15T13:40:46;100129.41;;;6.52;60.36
84483;BME280;74703;51.284;22.590;2024-02-15T13:45:49;100161.16;;;6.58;60.74
84483;BME280;74703;51.284;22.590;2024-02-15T13:50:52;100143.91;;;6.59;60.50
84483;BME280;74703;51.284;22.590;2024-02-15T13:55:53;100163.75;;;6.58;62.18
84483;BME280;74703;51.284;22.590;2024-02-15T14:00:54;100160.50;;;6.49;62.25
84483;BME280;74703;51.284;22.590;2024-02-15T14:05:55;100171.69;;;6.51;61.40
84483;BME280;74703;51.284;22.590;2024-02-15T14:10:55;100158.38;;;6.24;62.81
84483;BME280;74703;51.284;22.590;2024-02-15T14:15:56;100143.00;;;6.18;63.29
84483;BME280;74703;51.284;22.590;2024-02-15T14:20:57;100152.19;;;6.33;63.52
84483;BME280;74703;51.284;22.590;2024-02-15T14:26:00;100139.50;;;6.21;63.50
84483;BME280;74703;51.284;22.590;2024-02-15T14:31:02;100135.16;;;6.23;62.45
84483;BME280;74703;51.284;22.590;2024-02-15T14:36:21;100157.50;;;6.25;63.40
84483;BME280;74703;51.284;22.590;2024-02-15T14:41:22;100130.25;;;6.09;63.10
84483;BME280;74703;51.284;22.590;2024-02-15T14:46:23;100171.38;;;6.21;63.65
84483;BME280;74703;51.284;22.590;2024-02-15T14:51:24;100159.53;;;6.08;62.21
84483;BME280;74703;51.284;22.590;2024-02-15T14:56:25;100175.03;;;6.08;62.96
84483;BME280;74703;51.284;22.590;2024-02-15T15:01:26;100182.78;;;6.08;63.35
84483;BME280;74703;51.284;22.590;2024-02-15T15:06:27;100170.13;;;5.94;63.67
84483;BME280;74703;51.284;22.590;2024-02-15T15:11:46;100177.06;;;5.89;63.69
84483;BME280;74703;51.284;22.590;2024-02-15T15:17:05;100187.31;;;5.96;63.72
84483;BME280;74703;51.284;22.590;2024-02-15T15:22:06;100191.72;;;5.87;64.29
84483;BME280;74703;51.284;22.590;2024-02-15T15:27:07;100173.63;;;5.87;63.71
84483;BME280;74703;51.284;22.590;2024-02-15T15:32:08;100184.91;;;5.84;64.99
84483;BME280;74703;51.284;22.590;2024-02-15T15:37:08;100171.34;;;5.70;64.55
84483;BME280;74703;51.284;22.590;2024-02-15T15:42:12;100194.53;;;5.73;64.58
84483;BME280;74703;51.284;22.590;2024-02-15T15:47:13;100175.81;;;5.60;64.83
84483;BME280;74703;51.284;22.590;2024-02-15T15:52:13;100190.31;;;5.69;65.04
84483;BME280;74703;51.284;22.590;2024-02-15T15:57:14;100192.97;;;5.64;65.48
84483;BME280;74703;51.284;22.590;2024-02-15T16:02:15;100154.66;;;5.37;65.58
84483;BME280;74703;51.284;22.590;2024-02-15T16:07:17;100183.47;;;5.65;65.60
84483;BME280;74703;51.284;22.590;2024-02-15T16:12:18;100188.69;;;5.63;65.42
84483;BME280;74703;51.284;22.590;2024-02-15T16:17:20;100172.53;;;5.49;66.18
84483;BME280;74703;51.284;22.590;2024-02-15T16:22:21;100194.84;;;5.53;66.35
84483;BME280;74703;51.284;22.590;2024-02-15T16:27:22;100200.88;;;5.52;66.47
84483;BME280;74703;51.284;22.590;2024-02-15T16:32:22;100201.03;;;5.41;67.07
84483;BME280;74703;51.284;22.590;2024-02-15T16:37:24;100185.69;;;5.32;67.07
84483;BME280;74703;51.284;22.590;2024-02-15T16:42:25;100224.88;;;5.60;66.63
84483;BME280;74703;51.284;22.590;2024-02-15T16:47:27;100224.16;;;5.49;67.04
84483;BME280;74703;51.284;22.590;2024-02-15T16:52:29;100227.59;;;5.49;67.03
84483;BME280;74703;51.284;22.590;2024-02-15T16:57:31;100226.78;;;5.44;66.91
84483;BME280;74703;51.284;22.590;2024-02-15T17:02:32;100218.19;;;5.45;66.42
84483;BME280;74703;51.284;22.590;2024-02-15T17:07:34;100233.59;;;5.51;66.41
84483;BME280;74703;51.284;22.590;2024-02-15T17:12:36;100190.75;;;5.38;65.95
84483;BME280;74703;51.284;22.590;2024-02-15T17:17:36;100206.91;;;5.53;65.33
84483;BME280;74703;51.284;22.590;2024-02-15T17:22:37;100209.66;;;5.40;66.15
84483;BME280;74703;51.284;22.590;2024-02-15T17:27:39;100232.88;;;5.42;66.82
84483;BME280;74703;51.284;22.590;2024-02-15T17:32:42;100232.13;;;5.34;67.28
84483;BME280;74703;51.284;22.590;2024-02-15T17:37:43;100216.66;;;5.32;66.88
84483;BME280;74703;51.284;22.590;2024-02-15T17:42:44;100223.50;;;5.36;66.76
84483;BME280;74703;51.284;22.590;2024-02-15T17:47:46;100250.91;;;5.45;66.90
84483;BME280;74703;51.284;22.590;2024-02-15T17:52:47;100255.16;;;5.47;66.22
84483;BME280;74703;51.284;22.590;2024-02-15T17:57:48;100235.44;;;5.43;65.56
84483;BME280;74703;51.284;22.590;2024-02-15T18:02:51;100256.06;;;5.45;65.75
84483;BME280;74703;51.284;22.590;2024-02-15T18:07:51;100253.69;;;5.30;66.47
84483;BME280;74703;51.284;22.590;2024-02-15T18:12:52;100232.31;;;5.20;67.91
84483;BME280;74703;51.284;22.590;2024-02-15T18:17:53;100213.47;;;5.15;66.57
84483;BME280;74703;51.284;22.590;2024-02-15T18:22:55;100232.31;;;5.20;67.21
84483;BME280;74703;51.284;22.590;2024-02-15T18:27:56;100245.94;;;5.31;66.74
84483;BME280;74703;51.284;22.590;2024-02-15T18:32:56;100240.88;;;5.22;67.78
84483;BME280;74703;51.284;22.590;2024-02-15T18:37:57;100248.53;;;5.28;66.96
84483;BME280;74703;51.284;22.590;2024-02-15T18:42:58;100237.34;;;5.31;66.47
84483;BME280;74703;51.284;22.590;2024-02-15T18:47:59;100257.09;;;5.33;66.67
84483;BME280;74703;51.284;22.590;2024-02-15T18:53:01;100240.97;;;5.16;66.80
84483;BME280;74703;51.284;22.590;2024-02-15T18:58:02;100256.44;;;5.16;66.92
84483;BME280;74703;51.284;22.590;2024-02-15T19:03:03;100224.81;;;5.01;67.72
84483;BME280;74703;51.284;22.590;2024-02-15T19:08:04;100252.16;;;5.15;67.21
84483;BME280;74703;51.284;22.590;2024-02-15T19:13:05;100261.53;;;5.22;67.26
84483;BME280;74703;51.284;22.590;2024-02-15T19:18:06;100242.69;;;5.14;67.48
84483;BME280;74703;51.284;22.590;2024-02-15T19:23:06;100238.56;;;5.02;67.63
84483;BME280;74703;51.284;22.590;2024-02-15T19:28:08;100261.56;;;5.19;67.22
84483;BME280;74703;51.284;22.590;2024-02-15T19:33:09;100253.09;;;5.08;68.35
84483;BME280;74703;51.284;22.590;2024-02-15T19:38:09;100260.72;;;5.17;67.90
84483;BME280;74703;51.284;22.590;2024-02-15T19:43:10;100260.75;;;5.14;68.22
84483;BME280;74703;51.284;22.590;2024-02-15T19:48:11;100264.22;;;5.13;68.09
84483;BME280;74703;51.284;22.590;2024-02-15T19:53:12;100249.75;;;5.02;67.79
84483;BME280;74703;51.284;22.590;2024-02-15T19:58:14;100234.38;;;4.93;68.70
84483;BME280;74703;51.284;22.590;2024-02-15T20:03:14;100250.56;;;5.04;69.17
84483;BME280;74703;51.284;22.590;2024-02-15T20:08:15;100279.81;;;5.03;69.85
84483;BME280;74703;51.284;22.590;2024-02-15T20:13:16;100263.47;;;5.04;69.37
84483;BME280;74703;51.284;22.590;2024-02-15T20:18:16;100273.78;;;5.04;69.82
84483;BME280;74703;51.284;22.590;2024-02-15T20:23:17;100278.97;;;5.01;70.53
84483;BME280;74703;51.284;22.590;2024-02-15T20:28:17;100255.88;;;4.92;70.97
84483;BME280;74703;51.284;22.590;2024-02-15T20:33:18;100261.03;;;4.92;71.26
84483;BME280;74703;51.284;22.590;2024-02-15T20:38:23;100264.47;;;4.91;71.81
84483;BME280;74703;51.284;22.590;2024-02-15T20:43:29;100249.94;;;4.84;71.94
84483;BME280;74703;51.284;22.590;2024-02-15T20:48:33;100279.03;;;4.95;72.32
84483;BME280;74703;51.284;22.590;2024-02-15T20:53:33;100250.78;;;4.88;72.05
84483;BME280;74703;51.284;22.590;2024-02-15T20:58:35;100261.91;;;4.90;72.69
84483;BME280;74703;51.284;22.590;2024-02-15T21:03:38;100256.78;;;4.88;72.04
84483;BME280;74703;51.284;22.590;2024-02-15T21:08:40;100249.16;;;4.79;73.13
84483;BME280;74703;51.284;22.590;2024-02-15T21:13:41;100261.84;;;4.96;72.58
84483;BME280;74703;51.284;22.590;2024-02-15T21:18:45;100248.19;;;4.88;72.93
84483;BME280;74703;51.284;22.590;2024-02-15T21:23:47;100229.38;;;4.79;72.21
84483;BME280;74703;51.284;22.590;2024-02-15T21:28:49;100249.03;;;4.88;73.17
84483;BME280;74703;51.284;22.590;2024-02-15T21:33:50;100251.66;;;4.85;72.85
84483;BME280;74703;51.284;22.590;2024-02-15T21:38:54;100256.75;;;4.90;72.61
84483;BME280;74703;51.284;22.590;2024-02-15T21:43:57;100249.97;;;4.81;73.12
84483;BME280;74703;51.284;22.590;2024-02-15T21:48:59;100250.81;;;4.85;73.06
84483;BME280;74703;51.284;22.590;2024-02-15T21:54:00;100233.69;;;4.79;72.16
84483;BME280;74703;51.284;22.590;2024-02-15T21:59:02;100238.00;;;4.78;72.44
84483;BME280;74703;51.284;22.590;2024-02-15T22:04:03;100263.63;;;4.91;72.73
84483;BME280;74703;51.284;22.590;2024-02-15T22:09:05;100240.59;;;4.74;72.85
84483;BME280;74703;51.284;22.590;2024-02-15T22:14:06;100252.50;;;4.84;72.02
84483;BME280;74703;51.284;22.590;2024-02-15T22:19:10;100250.91;;;4.75;72.00
84483;BME280;74703;51.284;22.590;2024-02-15T22:24:12;100248.28;;;4.80;72.72
84483;BME280;74703;51.284;22.590;2024-02-15T22:29:13;100254.16;;;4.90;72.07
84483;BME280;74703;51.284;22.590;2024-02-15T22:34:14;100264.53;;;4.88;72.49
84483;BME280;74703;51.284;22.590;2024-02-15T22:39:16;100263.69;;;4.88;72.52
84483;BME280;74703;51.284;22.590;2024-02-15T22:44:17;100240.75;;;4.63;72.97
84483;BME280;74703;51.284;22.590;2024-02-15T22:49:18;100249.25;;;4.68;73.01
84483;BME280;74703;51.284;22.590;2024-02-15T22:54:19;100265.53;;;4.72;73.38
84483;BME280;74703;51.284;22.590;2024-02-15T22:59:20;100256.16;;;4.68;73.31
84483;BME280;74703;51.284;22.590;2024-02-15T23:04:21;100244.28;;;4.54;73.73
84483;BME280;74703;51.284;22.590;2024-02-15T23:09:22;100248.56;;;4.54;74.14
84483;BME280;74703;51.284;22.590;2024-02-15T23:14:23;100249.50;;;4.47;74.79
84483;BME280;74703;51.284;22.590;2024-02-15T23:19:23;100244.47;;;4.34;74.73
84483;BME280;74703;51.284;22.590;2024-02-15T23:24:24;100264.94;;;4.47;75.16
84483;BME280;74703;51.284;22.590;2024-02-15T23:29:25;100254.69;;;4.44;75.58
84483;BME280;74703;51.284;22.590;2024-02-15T23:34:26;100254.69;;;4.41;76.11
84483;BME280;74703;51.284;22.590;2024-02-15T23:39:27;100257.31;;;4.38;76.25
84483;BME280;74703;51.284;22.590;2024-02-15T23:44:57;100257.31;;;4.39;75.17
84483;BME280;74703;51.284;22.590;2024-02-15T23:49:57;100232.50;;;4.30;74.87
84483;BME280;74703;51.284;22.590;2024-02-15T23:54:58;100246.94;;;4.45;75.66
84483;BME280;74703;51.284;22.590;2024-02-15T23:59:58;100241.78;;;4.44;76.14
